Time;durP1;ratioP1;P1;durP2;ratioP2;P2;SDS_P1;SDS_P2;PMS_P1;PMS_P2;Temp;Humidity;BMP_temperature;BMP_pressure;BME280_temperature;BME280_humidity;BME280_pressure;Samples;Min_cycle;Max_cycle;Signal;HPM_P1;HPM_P2
2021/10/06 00:01:14;;;;;;;3.30;0.50;;;11.00;99.90;;;;;;6080928;23;20007;-85
2021/10/06 00:03:39;;;;;;;4.68;0.75;;;11.00;99.90;;;;;;6082215;23;20255;-87
2021/10/06 00:06:05;;;;;;;3.50;0.60;;;11.00;99.90;;;;;;6081029;23;20010;-86
2021/10/06 00:08:31;;;;;;;2.42;0.40;;;11.00;99.90;;;;;;6056716;23;20039;-87
2021/10/06 00:10:57;;;;;;;2.15;0.50;;;11.00;99.90;;;;;;6080791;23;20011;-87
2021/10/06 00:13:22;;;;;;;2.72;0.68;;;11.00;99.90;;;;;;6081350;23;20011;-85
2021/10/06 00:15:48;;;;;;;1.98;0.80;;;11.00;99.90;;;;;;6080345;23;20011;-86
2021/10/06 00:18:14;;;;;;;1.83;0.70;;;11.10;99.90;;;;;;6080684;23;20007;-87
2021/10/06 00:20:41;;;;;;;1.77;0.60;;;11.10;99.90;;;;;;6056920;23;20332;-88
2021/10/06 00:23:07;;;;;;;2.15;0.70;;;11.10;99.90;;;;;;6080785;23;20500;-87
2021/10/06 00:25:33;;;;;;;1.58;0.47;;;11.00;99.90;;;;;;6080980;23;20007;-87
2021/10/06 00:27:59;;;;;;;4.03;0.55;;;11.00;99.90;;;;;;6080935;23;20011;-86
2021/10/06 00:30:24;;;;;;;2.90;0.52;;;11.10;99.90;;;;;;6056820;23;20003;-86
2021/10/06 00:32:50;;;;;;;2.05;0.40;;;11.00;99.90;;;;;;6080799;23;20014;-87
2021/10/06 00:35:16;;;;;;;2.53;0.45;;;11.00;99.90;;;;;;6080664;23;20013;-85
2021/10/06 00:37:41;;;;;;;2.22;0.50;;;11.00;99.90;;;;;;6080351;23;20026;-85
2021/10/06 00:40:08;;;;;;;3.08;0.45;;;11.00;99.90;;;;;;6080667;23;20014;-86
2021/10/06 00:42:36;;;;;;;3.40;0.47;;;10.90;99.90;;;;;;6056548;23;20025;-86
2021/10/06 00:45:03;;;;;;;2.40;0.30;;;11.00;99.90;;;;;;6080630;23;20067;-85
2021/10/06 00:47:28;;;;;;;1.48;0.45;;;11.00;99.90;;;;;;6080708;23;20019;-86
2021/10/06 00:49:54;;;;;;;2.67;0.40;;;10.90;99.90;;;;;;6080847;23;20018;-86
2021/10/06 00:52:20;;;;;;;3.42;0.40;;;10.90;99.90;;;;;;6056618;23;20011;-85
2021/10/06 00:54:45;;;;;;;2.13;0.43;;;11.00;99.90;;;;;;6056877;23;20030;-85
2021/10/06 00:57:11;;;;;;;3.60;0.50;;;10.90;99.90;;;;;;6080682;23;20019;-87
2021/10/06 00:59:38;;;;;;;1.50;0.30;;;10.90;99.90;;;;;;6080502;23;20003;-85
2021/10/06 01:02:04;;;;;;;3.15;0.30;;;11.00;99.90;;;;;;6080613;23;20014;-84
2021/10/06 01:04:32;;;;;;;1.50;0.40;;;11.00;99.90;;;;;;6056814;23;20045;-84
2021/10/06 01:06:58;;;;;;;4.63;0.40;;;11.00;99.90;;;;;;6056691;23;20011;-85
2021/10/06 01:09:28;;;;;;;4.72;0.40;;;11.00;99.90;;;;;;6080761;23;20011;-85
2021/10/06 01:11:55;;;;;;;1.67;0.43;;;11.00;99.90;;;;;;6056915;23;20036;-87
2021/10/06 01:14:22;;;;;;;2.88;0.40;;;10.90;99.90;;;;;;6100480;23;20011;-85
2021/10/06 01:16:49;;;;;;;5.32;0.65;;;11.00;99.90;;;;;;6057108;23;20023;-87
2021/10/06 01:19:20;;;;;;;4.05;0.40;;;10.90;99.90;;;;;;6082491;23;20066;-86
2021/10/06 01:21:46;;;;;;;2.33;0.60;;;10.90;99.90;;;;;;6058527;23;20007;-87
2021/10/06 01:24:12;;;;;;;4.70;0.30;;;10.90;99.90;;;;;;6058451;23;20035;-85
2021/10/06 01:26:38;;;;;;;1.73;0.30;;;10.90;99.90;;;;;;6082737;23;20010;-86
2021/10/06 01:29:04;;;;;;;1.63;0.30;;;10.80;99.90;;;;;;6082432;23;20011;-88
2021/10/06 01:31:29;;;;;;;2.97;0.30;;;10.80;99.90;;;;;;6058485;23;20011;-87
2021/10/06 01:33:55;;;;;;;5.53;0.40;;;10.70;99.90;;;;;;6086948;23;20067;-87
2021/10/06 01:36:21;;;;;;;2.83;0.30;;;10.70;99.90;;;;;;6082769;23;20062;-87
2021/10/06 01:38:47;;;;;;;3.90;0.77;;;10.70;99.90;;;;;;6058706;23;20015;-87
2021/10/06 01:41:13;;;;;;;3.33;0.38;;;10.60;99.90;;;;;;6058654;23;20013;-86
2021/10/06 01:43:39;;;;;;;2.53;0.40;;;10.50;99.90;;;;;;6082355;23;20015;-87
2021/10/06 01:46:05;;;;;;;1.50;0.30;;;10.50;99.90;;;;;;6082244;23;20022;-86
2021/10/06 01:48:30;;;;;;;3.63;0.40;;;10.50;99.90;;;;;;6082193;23;20432;-86
2021/10/06 01:50:56;;;;;;;4.13;0.43;;;10.50;99.90;;;;;;6058517;23;20436;-86
2021/10/06 01:53:22;;;;;;;3.40;0.50;;;10.60;99.90;;;;;;6082364;23;20014;-87
2021/10/06 01:55:48;;;;;;;4.60;0.40;;;10.60;99.90;;;;;;6082564;23;20086;-87
2021/10/06 01:58:18;;;;;;;4.10;0.40;;;10.60;99.90;;;;;;6082728;23;20015;-86
2021/10/06 02:00:47;;;;;;;3.45;0.40;;;10.60;99.90;;;;;;6058786;23;20002;-86
2021/10/06 02:03:13;;;;;;;3.67;0.30;;;10.60;99.90;;;;;;6058571;23;20033;-87
2021/10/06 02:05:38;;;;;;;2.90;0.40;;;10.70;99.90;;;;;;6082624;23;20488;-84
2021/10/06 02:08:05;;;;;;;3.03;0.30;;;10.60;99.90;;;;;;6082337;23;20413;-87
2021/10/06 02:10:32;;;;;;;4.45;0.30;;;10.60;99.90;;;;;;6058066;23;20043;-85
2021/10/06 02:12:59;;;;;;;3.42;0.40;;;10.70;99.90;;;;;;6057999;23;20026;-86
2021/10/06 02:15:25;;;;;;;1.42;0.30;;;10.60;99.90;;;;;;6081947;23;20041;-85
2021/10/06 02:17:51;;;;;;;3.40;0.30;;;10.60;99.90;;;;;;6081681;23;20023;-85
2021/10/06 02:20:17;;;;;;;3.72;0.38;;;10.60;99.90;;;;;;6082044;23;20007;-85
2021/10/06 02:22:44;;;;;;;2.45;0.32;;;10.60;99.90;;;;;;6082384;23;20041;-86
2021/10/06 02:25:09;;;;;;;4.93;0.38;;;10.60;99.90;;;;;;6082421;23;20010;-85
2021/10/06 02:27:35;;;;;;;1.80;0.30;;;10.60;99.90;;;;;;6082035;23;20043;-86
2021/10/06 02:30:01;;;;;;;2.92;0.30;;;10.60;99.90;;;;;;6082122;23;20458;-87
2021/10/06 02:32:26;;;;;;;2.72;0.28;;;10.60;99.90;;;;;;6082174;23;20035;-86
2021/10/06 02:34:52;;;;;;;2.67;0.38;;;10.60;99.90;;;;;;6081942;23;20007;-86
2021/10/06 02:37:18;;;;;;;3.22;0.30;;;10.70;99.90;;;;;;6081841;23;20011;-87
2021/10/06 02:39:43;;;;;;;8.57;1.20;;;10.60;99.90;;;;;;6081661;23;20059;-86
2021/10/06 02:42:09;;;;;;;4.22;0.40;;;10.70;99.90;;;;;;6058152;23;20038;-85
2021/10/06 02:44:55;;;;;;;6.57;0.50;;;10.70;99.90;;;;;;6057965;23;20007;-85
2021/10/06 02:47:20;;;;;;;4.03;0.40;;;10.70;99.90;;;;;;6095922;23;20024;-85
2021/10/06 02:49:46;;;;;;;5.70;0.40;;;10.70;99.90;;;;;;6115686;23;20034;-85
2021/10/06 02:52:12;;;;;;;3.30;0.40;;;10.70;99.90;;;;;;6115251;23;20017;-84
2021/10/06 02:54:37;;;;;;;2.75;0.50;;;10.60;99.90;;;;;;6140006;23;20005;-85
2021/10/06 02:57:04;;;;;;;3.72;0.40;;;10.60;99.90;;;;;;6139968;23;20018;-85
2021/10/06 02:59:30;;;;;;;4.47;0.50;;;10.60;99.90;;;;;;6115423;23;20054;-84
2021/10/06 03:01:56;;;;;;;4.95;0.63;;;10.60;99.90;;;;;;6115374;23;20070;-83
2021/10/06 03:04:22;;;;;;;4.38;0.40;;;10.60;99.90;;;;;;6115186;23;20062;-85
2021/10/06 03:06:48;;;;;;;3.97;0.40;;;10.60;99.90;;;;;;6115376;23;20006;-85
2021/10/06 03:09:14;;;;;;;5.30;0.47;;;10.70;99.90;;;;;;6115186;23;20130;-85
2021/10/06 03:11:39;;;;;;;4.13;0.40;;;10.60;99.90;;;;;;6139906;23;20431;-85
2021/10/06 03:14:05;;;;;;;4.00;0.30;;;10.60;99.90;;;;;;6140004;23;20008;-84
2021/10/06 03:16:31;;;;;;;3.40;0.30;;;10.60;99.90;;;;;;6141032;23;20087;-86
2021/10/06 03:18:56;;;;;;;4.65;0.40;;;10.60;99.90;;;;;;6139372;23;20343;-86
2021/10/06 03:21:22;;;;;;;3.75;0.30;;;10.60;99.90;;;;;;6115236;23;20010;-84
2021/10/06 03:23:48;;;;;;;4.68;0.40;;;10.60;99.90;;;;;;6114883;23;20003;-87
2021/10/06 03:26:13;;;;;;;1.65;0.40;;;10.60;99.90;;;;;;6114925;23;20435;-85
2021/10/06 03:28:39;;;;;;;3.63;0.40;;;10.70;99.90;;;;;;6139363;23;20025;-84
2021/10/06 03:31:04;;;;;;;4.18;0.38;;;10.70;99.90;;;;;;6115161;23;20010;-86
2021/10/06 03:33:31;;;;;;;2.75;0.70;;;10.70;99.90;;;;;;6114562;23;20013;-85
2021/10/06 03:35:57;;;;;;;2.75;0.38;;;10.70;99.90;;;;;;6114015;23;20101;-85
2021/10/06 03:38:24;;;;;;;4.88;0.40;;;10.80;99.90;;;;;;6138977;23;20010;-84
2021/10/06 03:40:50;;;;;;;4.35;0.38;;;10.80;99.90;;;;;;6139290;23;20013;-86
2021/10/06 03:43:15;;;;;;;5.43;0.30;;;10.70;99.90;;;;;;6114645;23;20085;-85
2021/10/06 03:45:41;;;;;;;2.55;0.38;;;10.80;99.90;;;;;;6090496;23;20010;-85
2021/10/06 03:48:07;;;;;;;3.25;0.40;;;10.70;99.90;;;;;;6091399;23;20065;-87
2021/10/06 03:50:32;;;;;;;4.15;0.30;;;10.70;99.90;;;;;;6114566;23;20434;-86
2021/10/06 03:52:58;;;;;;;6.70;0.38;;;10.70;99.90;;;;;;6115359;23;20335;-88
2021/10/06 03:55:24;;;;;;;2.03;0.30;;;10.70;99.90;;;;;;6091201;23;20006;-86
2021/10/06 03:57:49;;;;;;;2.80;0.32;;;10.70;99.90;;;;;;6114548;23;20088;-84
2021/10/06 04:00:15;;;;;;;3.05;0.43;;;10.70;99.90;;;;;;6114530;23;20006;-86
2021/10/06 04:02:41;;;;;;;3.85;0.40;;;10.70;99.90;;;;;;6139454;23;20375;-84
2021/10/06 04:05:08;;;;;;;5.00;0.40;;;10.70;99.90;;;;;;6139300;23;20006;-85
2021/10/06 04:07:34;;;;;;;5.07;0.60;;;10.70;99.90;;;;;;6114861;23;20005;-86
2021/10/06 04:09:59;;;;;;;4.53;0.45;;;10.70;99.90;;;;;;6139254;23;20009;-85
2021/10/06 04:12:25;;;;;;;7.03;0.50;;;10.60;99.90;;;;;;6114988;23;20062;-86
2021/10/06 04:14:50;;;;;;;3.05;0.40;;;10.60;99.90;;;;;;6139352;23;20017;-87
2021/10/06 04:17:16;;;;;;;3.33;0.40;;;10.60;99.90;;;;;;6114789;23;20068;-86
2021/10/06 04:19:42;;;;;;;3.63;0.40;;;10.70;99.90;;;;;;6114576;23;20342;-87
2021/10/06 04:22:08;;;;;;;3.95;0.60;;;10.60;99.90;;;;;;6139056;23;20033;-86
2021/10/06 04:24:34;;;;;;;3.80;0.50;;;10.60;99.90;;;;;;6114929;23;20017;-86
2021/10/06 04:27:00;;;;;;;3.38;0.57;;;10.60;99.90;;;;;;6114547;23;20010;-86
2021/10/06 04:29:25;;;;;;;3.53;0.40;;;10.60;99.90;;;;;;6139360;23;20041;-88
2021/10/06 04:31:51;;;;;;;1.30;0.30;;;10.60;99.90;;;;;;6114868;23;20347;-90
2021/10/06 04:34:17;;;;;;;3.83;0.40;;;10.50;99.90;;;;;;6114627;23;20026;-87
2021/10/06 04:36:42;;;;;;;5.05;0.75;;;10.50;99.90;;;;;;6113484;23;20033;-88
2021/10/06 04:39:08;;;;;;;3.17;0.38;;;10.50;99.90;;;;;;6139245;23;20012;-88
2021/10/06 04:41:34;;;;;;;2.85;0.40;;;10.50;99.90;;;;;;6114966;23;20065;-89
2021/10/06 04:44:02;;;;;;;5.38;0.52;;;10.50;99.90;;;;;;6115147;23;20238;-90
2021/10/06 04:46:29;;;;;;;6.10;0.50;;;10.40;99.90;;;;;;6114393;23;20018;-89
2021/10/06 04:48:54;;;;;;;3.70;0.40;;;10.40;99.90;;;;;;6140488;23;20005;-88
2021/10/06 04:51:20;;;;;;;3.30;0.38;;;10.50;99.90;;;;;;6114194;23;20080;-89
2021/10/06 04:53:46;;;;;;;1.83;0.40;;;10.40;99.90;;;;;;6114812;23;20009;-90
2021/10/06 04:56:12;;;;;;;2.70;0.40;;;10.40;99.90;;;;;;6114553;23;20045;-89
2021/10/06 04:58:38;;;;;;;2.38;0.38;;;10.40;99.90;;;;;;6114290;23;20026;-87
2021/10/06 05:01:04;;;;;;;2.17;0.40;;;10.40;99.90;;;;;;6114505;23;20002;-88
2021/10/06 05:03:30;;;;;;;6.20;0.77;;;10.40;99.90;;;;;;6114823;23;20017;-89
2021/10/06 05:05:56;;;;;;;4.63;0.95;;;10.40;99.90;;;;;;6139255;23;20008;-88
2021/10/06 05:08:21;;;;;;;4.25;0.55;;;10.40;99.90;;;;;;6114319;23;20097;-89
2021/10/06 05:10:47;;;;;;;2.08;0.57;;;10.40;99.90;;;;;;6139270;23;20013;-89
2021/10/06 05:13:13;;;;;;;2.00;0.50;;;10.40;99.90;;;;;;6139410;23;20017;-89
2021/10/06 05:15:38;;;;;;;2.33;0.88;;;10.40;99.90;;;;;;6139089;23;20002;-86
2021/10/06 05:18:04;;;;;;;3.17;0.60;;;10.40;99.90;;;;;;6114223;23;20042;-89
2021/10/06 05:20:30;;;;;;;2.97;0.60;;;10.40;99.90;;;;;;6138973;23;20006;-88
2021/10/06 05:22:56;;;;;;;3.75;0.60;;;10.30;99.90;;;;;;6113888;23;20042;-87
2021/10/06 05:25:24;;;;;;;4.63;0.68;;;10.40;99.90;;;;;;6114393;23;20041;-89
2021/10/06 05:27:52;;;;;;;4.30;0.50;;;10.30;99.90;;;;;;6114647;23;20289;-87
2021/10/06 05:30:19;;;;;;;4.43;0.52;;;10.30;99.90;;;;;;6114576;23;20061;-89
2021/10/06 05:32:49;;;;;;;3.08;1.08;;;10.40;99.90;;;;;;6112813;23;20047;-88
2021/10/06 05:35:15;;;;;;;3.42;0.60;;;10.40;99.90;;;;;;6115019;23;20034;-88
2021/10/06 05:37:41;;;;;;;2.78;0.50;;;10.40;99.90;;;;;;6138493;23;20024;-89
2021/10/06 05:40:07;;;;;;;4.50;0.45;;;10.40;99.90;;;;;;6114120;23;20006;-87
2021/10/06 05:42:33;;;;;;;2.70;0.40;;;10.40;99.90;;;;;;6090121;23;20070;-89
2021/10/06 05:44:59;;;;;;;6.93;0.70;;;10.40;99.90;;;;;;6113961;23;20006;-89
2021/10/06 05:47:25;;;;;;;5.07;0.70;;;10.40;99.90;;;;;;6114338;23;20435;-87
2021/10/06 05:49:51;;;;;;;2.83;0.60;;;10.30;99.90;;;;;;6114522;23;20006;-89
2021/10/06 05:52:17;;;;;;;7.28;0.82;;;10.30;99.90;;;;;;6114430;23;20016;-88
2021/10/06 05:54:42;;;;;;;5.13;0.70;;;10.40;99.90;;;;;;6114905;23;20037;-88
2021/10/06 05:57:08;;;;;;;8.65;0.88;;;10.30;99.90;;;;;;6114630;23;20029;-88
2021/10/06 05:59:34;;;;;;;2.95;0.80;;;10.30;99.90;;;;;;6114682;23;20085;-88
2021/10/06 06:02:01;;;;;;;3.38;0.70;;;10.30;99.90;;;;;;6114527;23;20443;-88
2021/10/06 06:04:27;;;;;;;4.95;0.70;;;10.30;99.90;;;;;;6116131;23;20006;-89
2021/10/06 06:06:53;;;;;;;3.05;0.50;;;10.30;99.90;;;;;;6115586;23;20006;-90
2021/10/06 06:09:21;;;;;;;5.10;0.82;;;10.30;99.90;;;;;;6140367;23;20022;-87
2021/10/06 06:11:49;;;;;;;3.67;0.50;;;10.30;99.90;;;;;;6140358;23;20010;-85
2021/10/06 06:14:14;;;;;;;2.90;0.50;;;10.40;99.90;;;;;;6139506;23;20080;-87
2021/10/06 06:16:40;;;;;;;2.72;0.60;;;10.30;99.90;;;;;;6114499;23;20057;-88
2021/10/06 06:19:06;;;;;;;3.20;0.50;;;10.30;99.90;;;;;;6115045;23;20033;-89
2021/10/06 06:21:32;;;;;;;2.97;0.60;;;10.30;99.90;;;;;;6115015;23;20343;-87
2021/10/06 06:23:57;;;;;;;6.85;0.60;;;10.30;99.90;;;;;;6140144;23;20283;-88
2021/10/06 06:26:23;;;;;;;3.65;0.47;;;10.30;99.90;;;;;;6140057;23;20001;-87
2021/10/06 06:28:49;;;;;;;6.30;0.60;;;10.40;99.90;;;;;;6139341;23;20034;-88
2021/10/06 06:31:17;;;;;;;5.43;1.10;;;10.30;99.90;;;;;;6114781;23;20009;-88
2021/10/06 06:33:43;;;;;;;4.38;0.85;;;10.30;99.90;;;;;;6115341;23;20014;-87
2021/10/06 06:36:09;;;;;;;3.50;0.60;;;10.30;99.90;;;;;;6139298;23;20014;-87
2021/10/06 06:38:36;;;;;;;3.47;0.60;;;10.30;99.90;;;;;;6114529;23;20016;-89
2021/10/06 06:41:02;;;;;;;3.70;0.80;;;10.30;99.90;;;;;;6139648;23;20005;-87
2021/10/06 06:43:28;;;;;;;5.20;1.02;;;10.30;99.90;;;;;;6115830;23;20308;-88
2021/10/06 06:45:54;;;;;;;2.38;0.68;;;10.30;99.90;;;;;;6139964;23;20093;-89
2021/10/06 06:48:19;;;;;;;3.40;0.60;;;10.30;99.90;;;;;;6091488;23;20443;-87
2021/10/06 06:50:52;;;;;;;6.97;0.90;;;10.30;99.90;;;;;;6115751;23;20006;-88
2021/10/06 06:53:21;;;;;;;4.63;0.60;;;10.30;99.90;;;;;;6139768;23;20025;-88
2021/10/06 06:55:47;;;;;;;5.13;0.90;;;10.30;99.90;;;;;;6114789;23;20006;-88
2021/10/06 06:58:13;;;;;;;5.93;0.75;;;10.30;99.90;;;;;;6114800;23;20058;-88
2021/10/06 07:00:38;;;;;;;3.95;0.55;;;10.30;99.90;;;;;;6111799;23;20104;-88
2021/10/06 07:03:04;;;;;;;5.80;0.60;;;10.30;99.90;;;;;;6114908;23;20010;-86
2021/10/06 07:05:30;;;;;;;2.13;0.68;;;10.30;99.90;;;;;;6114992;23;20013;-88
2021/10/06 07:07:55;;;;;;;6.28;0.73;;;10.30;99.90;;;;;;6139092;23;20006;-87
2021/10/06 07:10:21;;;;;;;3.08;0.85;;;10.30;99.90;;;;;;6114759;23;20025;-88
2021/10/06 07:12:47;;;;;;;2.38;0.60;;;10.30;99.90;;;;;;6114798;23;20006;-87
2021/10/06 07:15:12;;;;;;;3.05;0.68;;;10.30;99.90;;;;;;6114026;23;20010;-88
2021/10/06 07:17:38;;;;;;;3.60;0.55;;;10.30;99.90;;;;;;6114638;23;20021;-87
2021/10/06 07:20:04;;;;;;;1.50;0.40;;;10.30;99.90;;;;;;6139250;23;20006;-88
2021/10/06 07:22:30;;;;;;;1.98;0.60;;;10.40;99.90;;;;;;6138873;23;20014;-86
2021/10/06 07:24:55;;;;;;;2.88;0.50;;;10.30;99.90;;;;;;6114410;23;20006;-89
2021/10/06 07:27:21;;;;;;;4.07;0.52;;;10.30;99.90;;;;;;6138924;23;20010;-88
2021/10/06 07:29:46;;;;;;;3.55;0.60;;;10.40;99.90;;;;;;6090684;23;19998;-87
2021/10/06 07:32:12;;;;;;;1.70;0.40;;;10.40;99.90;;;;;;6090783;23;20006;-88
2021/10/06 07:34:39;;;;;;;4.40;0.55;;;10.50;99.90;;;;;;6114278;23;20010;-89
2021/10/06 07:37:05;;;;;;;3.75;0.90;;;10.50;99.90;;;;;;6140344;23;20018;-87
2021/10/06 07:39:31;;;;;;;1.42;0.40;;;10.50;99.90;;;;;;6114386;23;20009;-89
2021/10/06 07:41:56;;;;;;;4.38;0.52;;;10.50;99.90;;;;;;6114302;23;20050;-87
2021/10/06 07:44:22;;;;;;;4.60;0.60;;;10.50;99.90;;;;;;6114480;23;20427;-88
2021/10/06 07:46:48;;;;;;;1.95;0.40;;;10.50;99.90;;;;;;6114000;23;20028;-87
2021/10/06 07:49:14;;;;;;;2.85;0.45;;;10.50;99.90;;;;;;6138607;23;20505;-87
2021/10/06 07:51:40;;;;;;;3.38;0.60;;;10.50;99.90;;;;;;6114098;23;20009;-88
2021/10/06 07:54:06;;;;;;;2.50;0.40;;;10.60;99.90;;;;;;6113756;23;20006;-88
2021/10/06 07:56:32;;;;;;;1.10;0.40;;;10.60;99.90;;;;;;6113884;23;20018;-87
2021/10/06 07:58:57;;;;;;;4.07;0.50;;;10.70;99.90;;;;;;6114176;23;20012;-87
2021/10/06 08:01:23;;;;;;;1.90;0.43;;;10.70;99.90;;;;;;6114431;23;20065;-88
2021/10/06 08:03:49;;;;;;;4.05;0.60;;;10.70;99.90;;;;;;6113890;23;20014;-85
2021/10/06 08:06:14;;;;;;;5.47;1.08;;;10.70;99.90;;;;;;6114348;23;20028;-89
2021/10/06 08:08:41;;;;;;;1.95;0.60;;;10.60;99.90;;;;;;6113918;23;20010;-88
2021/10/06 08:11:06;;;;;;;3.47;0.70;;;10.70;99.90;;;;;;6114029;23;20006;-89
2021/10/06 08:13:32;;;;;;;3.67;0.98;;;10.60;99.90;;;;;;6114438;23;20010;-90
2021/10/06 08:15:58;;;;;;;2.75;0.50;;;10.60;99.90;;;;;;6113983;23;20002;-88
2021/10/06 08:18:24;;;;;;;1.13;0.40;;;10.60;99.90;;;;;;6113929;23;20014;-89
2021/10/06 08:20:52;;;;;;;2.55;0.50;;;10.60;99.90;;;;;;6138646;23;20005;-89
2021/10/06 08:23:18;;;;;;;4.15;0.70;;;10.60;99.90;;;;;;6138846;23;20036;-89
2021/10/06 08:25:45;;;;;;;1.88;0.50;;;10.60;99.90;;;;;;6114162;23;20494;-88
2021/10/06 08:28:11;;;;;;;3.33;0.50;;;10.70;99.90;;;;;;6138674;23;20070;-88
2021/10/06 08:30:37;;;;;;;1.63;0.60;;;10.60;99.90;;;;;;6114027;23;20006;-87
2021/10/06 08:33:03;;;;;;;1.25;0.50;;;10.70;99.90;;;;;;6114080;23;20017;-88
2021/10/06 08:35:29;;;;;;;4.72;0.55;;;10.60;99.90;;;;;;6138226;23;20080;-88
2021/10/06 08:37:56;;;;;;;2.22;1.13;;;10.60;99.90;;;;;;6113612;23;20050;-88
2021/10/06 08:40:22;;;;;;;1.83;0.50;;;10.60;99.90;;;;;;6113904;23;20065;-87
2021/10/06 08:42:49;;;;;;;1.75;0.40;;;10.70;99.90;;;;;;6139965;23;20002;-89
2021/10/06 08:45:14;;;;;;;1.08;0.50;;;10.70;99.90;;;;;;6138027;23;20066;-87
2021/10/06 08:47:41;;;;;;;2.63;0.40;;;10.80;99.90;;;;;;6138116;23;20042;-89
2021/10/06 08:50:17;;;;;;;1.50;0.50;;;10.80;99.90;;;;;;6113721;23;20014;-87
2021/10/06 08:52:49;;;;;;;1.02;0.32;;;10.90;99.90;;;;;;6138743;23;20034;-88
2021/10/06 08:55:17;;;;;;;2.38;0.52;;;10.90;99.90;;;;;;6113875;23;20037;-88
2021/10/06 08:57:43;;;;;;;1.02;0.40;;;10.80;99.90;;;;;;6138072;23;20026;-87
2021/10/06 09:00:10;;;;;;;1.00;0.32;;;10.90;99.90;;;;;;6138227;23;20036;-88
2021/10/06 09:02:41;;;;;;;1.67;0.40;;;10.90;99.90;;;;;;6113882;23;20006;-87
2021/10/06 09:05:09;;;;;;;1.38;0.40;;;10.90;99.90;;;;;;6113825;23;20021;-87
2021/10/06 09:07:59;;;;;;;2.88;0.52;;;11.00;99.90;;;;;;6139051;23;20014;-88
2021/10/06 09:10:26;;;;;;;;;;;11.10;99.90;;;;;;6107067;23;20006;-87
2021/10/06 09:13:06;;;;;;;2.00;0.50;;;11.10;99.90;;;;;;6114588;23;19967;-88
2021/10/06 09:15:49;;;;;;;1.80;0.50;;;11.10;99.90;;;;;;6137929;23;20061;-85
2021/10/06 09:18:21;;;;;;;1.35;0.50;;;11.10;99.90;;;;;;6138262;23;20018;-89
2021/10/06 09:20:47;;;;;;;1.80;0.50;;;11.00;99.90;;;;;;6138334;23;20491;-87
2021/10/06 09:23:16;;;;;;;1.48;0.50;;;11.10;99.90;;;;;;6114024;23;20014;-88
2021/10/06 09:25:51;;;;;;;2.22;0.50;;;11.10;99.90;;;;;;6138416;23;20028;-86
2021/10/06 09:28:40;;;;;;;1.52;0.50;;;11.20;99.90;;;;;;6138122;23;20037;-89
2021/10/06 09:31:11;;;;;;;1.30;0.30;;;11.20;99.90;;;;;;6113546;23;20006;-87
2021/10/06 09:33:43;;;;;;;0.55;0.20;;;11.20;99.90;;;;;;6138172;23;20087;-86
2021/10/06 09:36:14;;;;;;;0.82;0.30;;;11.30;99.90;;;;;;6113408;23;20010;-87
2021/10/06 09:38:49;;;;;;;1.70;0.30;;;11.30;99.90;;;;;;6112735;23;20015;-87
2021/10/06 09:41:31;;;;;;;2.00;0.38;;;11.30;99.90;;;;;;6115745;23;20010;-88
2021/10/06 09:44:02;;;;;;;1.52;0.40;;;11.30;99.90;;;;;;6140476;23;20006;-87
2021/10/06 09:46:50;;;;;;;1.15;0.30;;;11.40;99.90;;;;;;6139757;23;20174;-87
2021/10/06 09:49:38;;;;;;;4.10;0.40;;;11.40;99.90;;;;;;6130218;23;20041;-88
2021/10/06 09:52:22;;;;;;;3.08;0.40;;;11.40;99.90;;;;;;6140153;23;20065;-88
2021/10/06 09:54:56;;;;;;;2.22;0.40;;;11.40;99.90;;;;;;6114607;23;20035;-87
2021/10/06 09:57:37;;;;;;;1.30;0.40;;;11.50;99.90;;;;;;6114956;23;20021;-85
2021/10/06 10:00:09;;;;;;;0.93;0.22;;;11.50;99.90;;;;;;6115549;23;20017;-89
2021/10/06 10:02:38;;;;;;;2.03;0.30;;;11.60;99.90;;;;;;6114986;23;20061;-89
2021/10/06 10:05:05;;;;;;;3.13;0.30;;;11.70;99.90;;;;;;6115141;23;20006;-87
2021/10/06 10:07:31;;;;;;;2.58;0.30;;;11.90;99.90;;;;;;6110278;23;20013;-89
2021/10/06 10:09:57;;;;;;;1.85;0.35;;;12.00;99.90;;;;;;6099221;23;20037;-87
2021/10/06 10:12:26;;;;;;;2.10;0.22;;;12.10;99.90;;;;;;6108994;23;20483;-87
2021/10/06 10:14:53;;;;;;;2.45;0.30;;;12.20;99.90;;;;;;6139623;23;20037;-88
2021/10/06 10:17:19;;;;;;;1.13;0.30;;;12.10;99.90;;;;;;6139621;23;20041;-88
2021/10/06 10:19:54;;;;;;;2.00;0.35;;;12.00;99.90;;;;;;6115230;23;20001;-88
2021/10/06 10:22:21;;;;;;;0.80;0.30;;;12.00;99.90;;;;;;6139684;23;20006;-88
2021/10/06 10:24:51;;;;;;;3.28;0.40;;;11.90;99.90;;;;;;6139390;23;20091;-89
2021/10/06 10:27:23;;;;;;;1.00;0.40;;;11.80;99.90;;;;;;6115054;23;20038;-87
2021/10/06 10:29:57;;;;;;;1.50;0.40;;;11.80;99.90;;;;;;6115183;23;20029;-88
2021/10/06 10:32:26;;;;;;;2.65;0.57;;;11.80;99.90;;;;;;6139524;23;20011;-88
2021/10/06 10:35:13;;;;;;;3.93;0.60;;;11.70;99.90;;;;;;6139668;23;20010;-87
2021/10/06 10:37:53;;;;;;;4.38;0.80;;;11.80;99.90;;;;;;6090671;23;20014;-89
2021/10/06 10:40:34;;;;;;;2.42;0.50;;;11.80;99.90;;;;;;6140024;23;20006;-89
2021/10/06 10:43:29;;;;;;;1.55;0.50;;;11.90;99.90;;;;;;6115110;23;20021;-88
2021/10/06 10:46:10;;;;;;;3.88;0.50;;;12.10;99.90;;;;;;6136555;23;20045;-89
2021/10/06 10:48:56;;;;;;;3.60;0.60;;;12.30;99.90;;;;;;6139277;23;20036;-89
2021/10/06 10:51:41;;;;;;;1.20;0.40;;;12.30;99.90;;;;;;6139368;23;20057;-87
2021/10/06 10:54:10;;;;;;;2.90;0.40;;;12.60;99.90;;;;;;6115181;23;20006;-87
2021/10/06 10:56:42;;;;;;;4.17;0.60;;;12.70;99.90;;;;;;6114817;23;20006;-89
2021/10/06 10:59:09;;;;;;;3.03;0.85;;;12.60;99.90;;;;;;6115732;23;20093;-87
2021/10/06 11:01:58;;;;;;;3.97;0.70;;;12.70;99.90;;;;;;6114689;23;20101;-87
2021/10/06 11:04:29;;;;;;;2.63;0.50;;;12.60;99.90;;;;;;6139482;23;20033;-89
2021/10/06 11:07:14;;;;;;;3.08;0.65;;;13.00;99.90;;;;;;6139142;23;20009;-87
2021/10/06 11:09:43;;;;;;;3.38;0.60;;;13.10;99.90;;;;;;6139539;23;20026;-88
2021/10/06 11:12:11;;;;;;;3.50;0.80;;;13.00;99.90;;;;;;6114537;23;20010;-89
2021/10/06 11:14:42;;;;;;;4.22;0.60;;;13.20;99.90;;;;;;6138968;23;20052;-87
2021/10/06 11:17:19;;;;;;;2.92;0.45;;;13.30;99.90;;;;;;6114149;23;20064;-87
2021/10/06 11:19:55;;;;;;;3.50;0.60;;;13.70;99.90;;;;;;6139358;23;20101;-86
2021/10/06 11:22:23;;;;;;;2.20;0.40;;;13.70;99.90;;;;;;6114352;23;20036;-88
2021/10/06 11:25:09;;;;;;;2.95;0.40;;;13.70;99.90;;;;;;6139027;23;20008;-88
2021/10/06 11:27:50;;;;;;;2.30;0.47;;;13.80;99.90;;;;;;6139106;23;20044;-88
2021/10/06 11:30:17;;;;;;;1.50;0.40;;;13.90;99.90;;;;;;6114333;23;20081;-87
2021/10/06 11:32:47;;;;;;;3.10;0.52;;;14.00;99.90;;;;;;6114241;23;20016;-86
2021/10/06 11:35:13;;;;;;;2.85;0.40;;;14.00;99.90;;;;;;6114158;23;20030;-87
2021/10/06 11:37:39;;;;;;;2.70;0.40;;;13.70;99.90;;;;;;6114020;23;20018;-88
2021/10/06 11:40:12;;;;;;;2.13;0.30;;;13.70;99.90;;;;;;6114505;23;20006;-87
2021/10/06 11:42:39;;;;;;;2.22;0.40;;;13.90;99.90;;;;;;6114228;23;20065;-88
2021/10/06 11:45:05;;;;;;;2.40;0.30;;;14.00;99.90;;;;;;6139976;23;20066;-88
2021/10/06 11:47:36;;;;;;;2.90;0.60;;;13.90;99.90;;;;;;6138182;23;20018;-86
2021/10/06 11:50:02;;;;;;;1.48;0.30;;;13.80;99.90;;;;;;6114205;23;20014;-87
2021/10/06 11:52:27;;;;;;;2.95;0.30;;;14.00;99.90;;;;;;6113956;23;20046;-85
2021/10/06 11:54:54;;;;;;;0.50;0.20;;;14.10;99.90;;;;;;6114151;23;20138;-86
2021/10/06 11:57:20;;;;;;;1.50;0.40;;;14.00;99.90;;;;;;6113931;23;20021;-87
2021/10/06 11:59:46;;;;;;;2.55;0.40;;;14.10;99.90;;;;;;6113858;23;20006;-88
2021/10/06 12:02:16;;;;;;;2.17;0.30;;;14.40;99.90;;;;;;6114185;23;20296;-86
2021/10/06 12:04:43;;;;;;;1.77;0.40;;;14.50;99.90;;;;;;6114281;23;20037;-87
2021/10/06 12:07:11;;;;;;;2.00;0.20;;;14.80;99.90;;;;;;6113770;23;20012;-86
2021/10/06 12:09:39;;;;;;;3.20;0.50;;;15.20;99.90;;;;;;6113852;23;20010;-85
2021/10/06 12:12:14;;;;;;;4.35;0.40;;;15.00;99.90;;;;;;6138355;23;20017;-87
2021/10/06 12:15:01;;;;;;;1.25;0.20;;;14.90;99.90;;;;;;6138434;23;20145;-87
2021/10/06 12:17:31;;;;;;;0.82;0.20;;;14.70;99.90;;;;;;6113701;23;20028;-86
2021/10/06 12:20:00;;;;;;;1.25;0.30;;;14.70;99.90;;;;;;6108898;23;20006;-87
2021/10/06 12:22:34;;;;;;;1.52;0.25;;;14.50;99.90;;;;;;6138506;23;20155;-87
2021/10/06 12:25:01;;;;;;;1.48;0.20;;;14.50;99.90;;;;;;6138462;23;20010;-86
2021/10/06 12:27:34;;;;;;;2.20;0.20;;;14.60;99.90;;;;;;6113567;23;20009;-86
2021/10/06 12:30:06;;;;;;;2.67;0.30;;;14.50;99.90;;;;;;6138594;23;20006;-86
2021/10/06 12:32:32;;;;;;;0.90;0.20;;;14.10;99.90;;;;;;6138165;23;20070;-86
2021/10/06 12:35:06;;;;;;;1.83;0.20;;;14.20;99.90;;;;;;6113917;23;20057;-85
2021/10/06 12:37:32;;;;;;;3.05;0.25;;;14.30;99.90;;;;;;6137995;23;20312;-86
2021/10/06 12:39:58;;;;;;;1.35;0.30;;;14.40;99.90;;;;;;6138272;23;20288;-86
2021/10/06 12:42:24;;;;;;;2.67;0.40;;;14.60;99.90;;;;;;6113988;23;20016;-86
2021/10/06 12:45:10;;;;;;;1.80;0.40;;;14.90;99.90;;;;;;6113740;23;20012;-85
2021/10/06 12:47:46;;;;;;;1.50;0.35;;;15.20;99.90;;;;;;6077771;23;20082;-87
2021/10/06 12:50:12;;;;;;;2.85;0.50;;;15.10;99.90;;;;;;6078392;23;20066;-86
2021/10/06 12:52:37;;;;;;;4.03;0.43;;;14.80;99.90;;;;;;6054468;23;20035;-86